Time;durP1;ratioP1;P1;durP2;ratioP2;P2;SDS_P1;SDS_P2;PMS_P1;PMS_P2;Temp;Humidity;BMP_temperature;BMP_pressure;BME280_temperature;BME280_humidity;BME280_pressure;Samples;Min_cycle;Max_cycle;Signal;HPM_P1;HPM_P2
2021/11/28 00:00:07;;;;;;;17.05;8.95;;;;;;;4.49;78.22;98360.84;4927952;29;20047;-82
2021/11/28 00:02:34;;;;;;;;;;;;;;;4.50;77.42;98352.25;4914978;29;20388;-79
2021/11/28 00:05:03;;;;;;;16.98;8.63;;;;;;;4.22;77.94;98298.34;4900125;29;20097;-81
2021/11/28 00:15:08;;;;;;;19.77;9.73;;;;;;;4.40;77.79;98335.13;4926651;29;20071;-84
2021/11/28 00:17:36;;;;;;;;;;;;;;;4.42;77.30;98335.09;4925695;29;20176;-81
2021/11/28 00:20:03;;;;;;;21.50;9.82;;;;;;;4.35;77.95;98340.31;4947690;29;20473;-81
2021/11/28 00:22:30;;;;;;;19.08;9.95;;;;;;;4.43;77.27;98345.41;4900159;29;20050;-84
2021/11/28 00:24:56;;;;;;;19.45;9.43;;;;;;;4.34;77.45;98322.28;4930998;29;20035;-81
2021/11/28 00:27:22;;;;;;;20.65;9.90;;;;;;;4.32;77.65;98326.59;4930498;29;20047;-81
2021/11/28 00:29:48;;;;;;;20.98;9.43;;;;;;;4.43;78.13;98327.38;4917757;29;20074;-82
2021/11/28 00:32:15;;;;;;;21.10;9.02;;;;;;;4.23;77.91;98304.34;4903563;29;20046;-83
2021/11/28 00:34:41;;;;;;;20.20;9.68;;;;;;;4.26;77.84;98306.06;4943331;29;20080;-81
2021/11/28 00:37:10;;;;;;;22.90;9.93;;;;;;;4.24;77.86;98313.78;4928769;29;20047;-81
2021/11/28 00:39:35;;;;;;;21.60;10.18;;;;;;;4.50;77.52;98366.84;4925167;29;20044;-81
2021/11/28 00:42:05;;;;;;;17.30;8.93;;;;;;;4.54;78.01;98350.50;4900671;29;20409;-83
2021/11/28 00:44:32;;;;;;;18.67;9.40;;;;;;;4.35;77.85;98317.16;4899545;29;20048;-80
2021/11/28 00:46:58;;;;;;;19.58;8.48;;;;;;;4.52;77.63;98345.34;4915319;29;20642;-82
2021/11/28 00:49:26;;;;;;;20.17;10.30;;;;;;;4.48;77.72;98333.38;4909446;29;20549;-82
2021/11/28 00:51:56;;;;;;;17.23;9.07;;;;;;;4.42;77.70;98341.13;4912746;29;20044;-81
2021/11/28 00:54:24;;;;;;;18.55;9.45;;;;;;;4.37;78.06;98320.56;4906635;29;20050;-80
2021/11/28 00:56:52;;;;;;;20.08;9.70;;;;;;;4.26;77.89;98295.75;4910956;29;20698;-81
2021/11/28 00:59:18;;;;;;;17.33;8.68;;;;;;;4.51;78.14;98335.06;4913267;29;20051;-81
2021/11/28 01:01:45;;;;;;;18.70;8.65;;;;;;;4.31;77.59;98294.84;4909057;29;20135;-83
2021/11/28 01:04:11;;;;;;;16.45;8.65;;;;;;;4.18;77.96;98283.78;4911214;29;20043;-81
2021/11/28 01:06:38;;;;;;;20.92;9.90;;;;;;;4.17;77.46;98261.47;4907940;29;20039;-81
2021/11/28 01:09:06;;;;;;;18.10;8.80;;;;;;;4.64;77.90;98340.97;4872546;29;20082;-82
2021/11/28 01:11:32;;;;;;;18.52;8.85;;;;;;;4.48;78.01;98312.75;4912453;29;20059;-82
2021/11/28 01:13:59;;;;;;;16.33;8.02;;;;;;;4.51;78.07;98319.59;4925315;29;20075;-82
2021/11/28 01:16:26;;;;;;;15.90;8.82;;;;;;;4.57;78.52;98306.69;4910370;29;20052;-82
2021/11/28 01:18:53;;;;;;;17.00;9.40;;;;;;;4.68;77.69;98334.94;4907690;29;20047;-82
2021/11/28 01:21:19;;;;;;;17.02;8.18;;;;;;;4.77;77.63;98337.41;4908341;29;20039;-80
2021/11/28 01:23:46;;;;;;;17.42;8.57;;;;;;;4.57;77.11;98305.81;4901464;29;20080;-81
2021/11/28 01:26:13;;;;;;;15.40;8.25;;;;;;;3.74;77.70;98161.41;4920311;29;20043;-82
2021/11/28 01:28:40;;;;;;;18.08;9.30;;;;;;;4.85;78.01;98336.50;4915472;29;20039;-82
2021/11/28 01:31:06;;;;;;;15.35;8.30;;;;;;;4.59;78.40;98288.63;4932029;29;20040;-83
2021/11/28 01:33:32;;;;;;;20.45;9.05;;;;;;;4.86;77.09;98330.47;4903996;29;21214;-82
2021/11/28 01:35:58;;;;;;;14.77;8.73;;;;;;;4.32;76.94;98244.19;4914655;29;20051;-84
2021/11/28 01:38:24;;;;;;;17.15;9.02;;;;;;;4.74;77.85;98309.13;4923498;29;20039;-85
2021/11/28 01:40:54;;;;;;;20.15;8.70;;;;;;;4.55;77.37;98298.09;4915100;29;20056;-83
2021/11/28 01:43:23;;;;;;;17.25;9.38;;;;;;;4.79;77.65;98327.94;4910069;29;20102;-82
2021/11/28 01:45:52;;;;;;;15.80;8.57;;;;;;;4.71;77.42;98319.44;4914258;29;20044;-84
2021/11/28 01:48:24;;;;;;;17.73;9.52;;;;;;;4.65;77.01;98298.88;4913720;29;20131;-83
2021/11/28 01:50:52;;;;;;;17.55;8.95;;;;;;;4.83;77.93;98323.63;4911103;29;20047;-84
2021/11/28 01:53:24;;;;;;;18.13;8.60;;;;;;;4.93;78.21;98342.44;4908900;29;20040;-82
2021/11/28 01:55:51;;;;;;;15.65;9.00;;;;;;;4.87;77.26;98335.59;4922046;29;20043;-82
2021/11/28 01:58:31;;;;;;;17.83;8.93;;;;;;;4.85;77.69;98323.59;4898642;29;20494;-82
2021/11/28 02:01:07;;;;;;;19.05;9.38;;;;;;;4.93;77.85;98332.13;4909532;29;20047;-81
2021/11/28 02:03:37;;;;;;;14.43;8.57;;;;;;;4.94;77.86;98328.69;4923304;29;20040;-84
2021/11/28 02:06:08;;;;;;;17.17;8.88;;;;;;;5.00;77.25;98333.75;4900456;29;20050;-86
2021/11/28 02:08:35;;;;;;;18.48;9.68;;;;;;;5.05;78.19;98323.44;4926941;29;20068;-84
2021/11/28 02:11:01;;;;;;;15.25;8.73;;;;;;;5.11;77.46;98324.22;4886777;29;20062;-85
2021/11/28 02:13:50;;;;;;;15.30;8.63;;;;;;;4.51;77.30;98214.84;4893471;29;20043;-85
2021/11/28 02:16:17;;;;;;;18.33;9.07;;;;;;;4.43;77.39;98190.00;4903785;29;20071;-84
2021/11/28 02:18:43;;;;;;;19.70;10.20;;;;;;;4.74;77.54;98236.09;4902990;29;20130;-84
2021/11/28 02:21:12;;;;;;;17.20;9.00;;;;;;;5.29;77.41;98317.13;4889925;29;20500;-85
2021/11/28 02:23:40;;;;;;;16.45;9.00;;;;;;;4.81;76.94;98241.16;4918483;29;20136;-84
2021/11/28 02:26:10;;;;;;;16.25;9.13;;;;;;;5.31;77.29;98333.47;4924138;29;20054;-86
2021/11/28 02:28:40;;;;;;;17.67;8.73;;;;;;;5.33;77.25;98329.13;4902237;29;20072;-86
2021/11/28 02:31:07;;;;;;;16.67;8.70;;;;;;;5.21;77.79;98296.59;4921995;29;20510;-82
2021/11/28 02:33:34;;;;;;;17.35;9.50;;;;;;;5.19;76.93;98303.50;4899089;29;20437;-85
2021/11/28 02:36:00;;;;;;;17.20;9.48;;;;;;;5.36;76.97;98305.03;4898182;29;20040;-84
2021/11/28 02:38:27;;;;;;;18.25;9.93;;;;;;;5.15;76.78;98275.19;4900425;29;20489;-85
2021/11/28 02:40:53;;;;;;;16.67;9.13;;;;;;;4.87;76.26;98226.50;4913907;29;20692;-85
2021/11/28 02:43:22;;;;;;;18.83;8.80;;;;;;;5.01;76.61;98247.81;4900962;29;20495;-83
2021/11/28 02:45:48;;;;;;;18.52;9.95;;;;;;;5.32;76.85;98306.78;4901356;29;20057;-83
2021/11/28 02:48:16;;;;;;;18.08;9.18;;;;;;;5.40;76.27;98309.28;4881179;29;20056;-86
2021/11/28 02:50:44;;;;;;;16.77;9.05;;;;;;;5.54;76.48;98332.34;4895913;29;20050;-84
2021/11/28 02:53:12;;;;;;;21.02;9.70;;;;;;;5.55;77.15;98327.16;4897416;29;20044;-84
2021/11/28 02:55:43;;;;;;;16.30;9.10;;;;;;;5.23;76.41;98278.50;4880546;29;20051;-82
2021/11/28 02:58:11;;;;;;;23.55;10.23;;;;;;;4.86;77.00;98224.78;4894647;29;20066;-84
2021/11/28 03:00:40;;;;;;;17.38;9.80;;;;;;;5.44;76.44;98318.69;4867008;29;20048;-83
2021/11/28 03:03:08;;;;;;;15.07;9.03;;;;;;;5.37;76.14;98305.03;4909935;29;20406;-85
2021/11/28 03:05:34;;;;;;;17.00;8.95;;;;;;;5.55;76.08;98334.88;4910684;29;20435;-85
2021/11/28 03:08:01;;;;;;;17.88;9.60;;;;;;;5.33;76.58;98292.16;4910391;29;20063;-84
2021/11/28 03:10:36;;;;;;;17.48;9.45;;;;;;;5.55;76.86;98340.06;4923264;29;20052;-82
2021/11/28 03:13:09;;;;;;;16.15;9.38;;;;;;;5.24;76.69;98294.00;4894209;29;20518;-82
2021/11/28 03:15:36;;;;;;;18.48;9.27;;;;;;;5.32;76.67;98311.09;4896663;29;20045;-83
2021/11/28 03:18:11;;;;;;;16.90;9.35;;;;;;;5.33;76.33;98321.41;4912146;29;20048;-82
2021/11/28 03:20:37;;;;;;;16.98;9.15;;;;;;;5.45;76.01;98337.59;4898323;29;20052;-83
2021/11/28 03:23:03;;;;;;;17.73;9.30;;;;;;;5.22;76.67;98297.44;4895211;29;20524;-84
2021/11/28 03:25:32;;;;;;;16.55;9.82;;;;;;;5.69;76.22;98359.69;4893750;29;20549;-83
2021/11/28 03:28:00;;;;;;;16.42;9.15;;;;;;;5.35;76.30;98280.97;4895656;29;20073;-83
2021/11/28 03:30:27;;;;;;;18.17;9.98;;;;;;;5.17;75.97;98265.72;4895201;29;20055;-84
2021/11/28 03:33:25;;;;;;;17.52;9.30;;;;;;;5.46;76.36;98309.22;4880350;29;20063;-83
2021/11/28 03:36:08;;;;;;;18.60;9.73;;;;;;;5.54;75.74;98322.03;4896740;29;20044;-84
2021/11/28 03:38:37;;;;;;;16.50;9.52;;;;;;;5.11;75.42;98243.41;4888207;29;20044;-83
2021/11/28 03:41:04;;;;;;;16.80;9.40;;;;;;;5.24;76.19;98272.47;4888529;29;20039;-85
2021/11/28 03:43:32;;;;;;;15.00;9.07;;;;;;;5.23;75.90;98273.34;4898051;29;20538;-84
2021/11/28 03:45:59;;;;;;;17.52;9.50;;;;;;;5.39;75.74;98294.66;4908605;29;20040;-85
2021/11/28 03:48:25;;;;;;;17.10;9.90;;;;;;;5.72;76.18;98334.69;4914718;29;20139;-84
2021/11/28 03:50:51;;;;;;;16.02;9.57;;;;;;;5.73;75.32;98327.81;4927240;29;20832;-83
2021/11/28 03:53:19;;;;;;;18.38;9.50;;;;;;;5.97;75.68;98367.94;4910588;29;20149;-85
2021/11/28 03:55:47;;;;;;;16.80;9.75;;;;;;;5.99;75.77;98386.84;4894746;29;20068;-82
2021/11/28 03:58:13;;;;;;;18.33;9.10;;;;;;;6.05;75.76;98377.38;4896790;29;20063;-84
2021/11/28 04:00:39;;;;;;;16.83;9.90;;;;;;;5.69;75.78;98311.50;4878832;29;20490;-86
2021/11/28 04:03:10;;;;;;;18.40;10.15;;;;;;;5.97;75.70;98351.56;4898126;29;20055;-86
2021/11/28 04:05:39;;;;;;;17.08;9.82;;;;;;;5.59;75.33;98302.19;4896843;29;20040;-84
2021/11/28 04:08:06;;;;;;;17.92;10.05;;;;;;;6.11;75.56;98379.84;4910402;29;20071;-86
2021/11/28 04:10:32;;;;;;;19.95;10.60;;;;;;;5.71;75.37;98321.81;4879662;29;20581;-84
2021/11/28 04:12:59;;;;;;;18.25;10.93;;;;;;;5.72;75.51;98342.44;4893103;29;20406;-85
2021/11/28 04:15:24;;;;;;;17.52;9.60;;;;;;;6.00;75.38;98393.75;4908616;29;20044;-85
2021/11/28 04:18:13;;;;;;;21.08;11.10;;;;;;;5.69;74.93;98373.44;4895995;29;20052;-82
2021/11/28 04:20:42;;;;;;;23.33;10.02;;;;;;;5.14;75.72;98287.22;4907634;29;20048;-85
2021/11/28 04:23:08;;;;;;;19.77;9.88;;;;;;;5.43;75.38;98335.06;4896942;29;20502;-84
2021/11/28 04:25:35;;;;;;;19.55;10.43;;;;;;;5.34;75.84;98337.72;4910074;29;20036;-84
2021/11/28 04:28:01;;;;;;;18.90;10.43;;;;;;;5.20;76.10;98317.22;4883033;29;20179;-84
2021/11/28 04:30:28;;;;;;;20.25;10.95;;;;;;;5.00;75.71;98282.19;4914450;29;20039;-85
2021/11/28 04:32:56;;;;;;;21.58;10.82;;;;;;;5.61;76.28;98383.03;4880185;29;20048;-85
2021/11/28 04:35:22;;;;;;;19.90;10.90;;;;;;;5.19;75.89;98315.53;4902085;29;20044;-83
2021/11/28 04:37:49;;;;;;;20.23;10.35;;;;;;;5.53;76.14;98364.19;4885453;29;20058;-83
2021/11/28 04:40:15;;;;;;;21.95;10.98;;;;;;;5.39;75.84;98348.84;4924867;29;20099;-83
2021/11/28 04:42:42;;;;;;;21.77;11.48;;;;;;;5.60;75.93;98398.50;4926414;29;20038;-83
2021/11/28 04:45:11;;;;;;;22.80;11.60;;;;;;;5.16;75.82;98331.91;4925397;29;20072;-83
2021/11/28 04:47:38;;;;;;;20.38;10.18;;;;;;;5.78;76.20;98424.09;4914797;29;20070;-83
2021/11/28 04:50:11;;;;;;;21.08;11.48;;;;;;;5.76;76.06;98427.59;4910568;29;20047;-83
2021/11/28 04:52:38;;;;;;;18.90;10.80;;;;;;;5.14;76.30;98325.91;4894091;29;20189;-83
2021/11/28 04:55:07;;;;;;;21.85;11.75;;;;;;;5.82;76.24;98443.00;4910089;29;20095;-83
2021/11/28 04:57:33;;;;;;;21.48;11.40;;;;;;;5.34;76.27;98356.66;4904377;29;20184;-83
2021/11/28 05:00:00;;;;;;;21.98;11.30;;;;;;;5.49;76.50;98378.84;4877302;29;20051;-84
2021/11/28 05:02:26;;;;;;;22.33;11.65;;;;;;;5.75;76.43;98412.97;4892138;29;20047;-83
2021/11/28 05:04:53;;;;;;;21.33;12.35;;;;;;;5.59;76.12;98379.59;4891013;29;20054;-83
2021/11/28 05:07:42;;;;;;;23.33;11.10;;;;;;;5.68;75.95;98418.19;4890384;29;20207;-83
2021/11/28 05:10:10;;;;;;;21.90;11.25;;;;;;;5.90;75.80;98451.50;4905232;29;20048;-85
2021/11/28 05:12:49;;;;;;;21.40;11.70;;;;;;;5.81;76.01;98443.88;4984836;23;20857;-82
2021/11/28 05:15:16;;;;;;;20.42;10.43;;;;;;;5.53;76.26;98402.88;4949984;28;20047;-83
2021/11/28 05:18:02;;;;;;;18.77;10.63;;;;;;;5.34;76.05;98371.25;4972344;28;21251;-83
2021/11/28 05:20:29;;;;;;;23.02;11.93;;;;;;;4.84;76.01;98278.94;4911919;28;20598;-85
2021/11/28 05:22:56;;;;;;;21.98;12.00;;;;;;;5.57;76.27;98407.97;4942832;28;20047;-82
2021/11/28 05:25:29;;;;;;;19.20;9.85;;;;;;;5.28;76.00;98373.03;4925868;28;20166;-83
2021/11/28 05:28:03;;;;;;;19.42;10.70;;;;;;;5.35;75.88;98384.16;4942366;28;20078;-85
2021/11/28 05:30:30;;;;;;;17.48;9.75;;;;;;;5.03;76.01;98325.16;4927668;28;20146;-85
2021/11/28 05:33:19;;;;;;;18.40;9.70;;;;;;;4.96;75.99;98298.59;4944328;28;20531;-83
2021/11/28 05:36:05;;;;;;;17.70;9.98;;;;;;;5.34;76.03;98377.28;4933316;28;20051;-84
2021/11/28 05:38:51;;;;;;;15.60;9.05;;;;;;;5.88;76.42;98469.63;4941178;28;20055;-83
2021/11/28 05:41:18;;;;;;;17.50;9.45;;;;;;;5.58;76.25;98420.03;4959838;28;20042;-84
2021/11/28 05:43:49;;;;;;;16.98;9.88;;;;;;;5.75;76.21;98444.78;4975266;28;20070;-85
2021/11/28 05:46:27;;;;;;;17.17;9.50;;;;;;;5.72;76.26;98434.53;4932254;28;20046;-84
2021/11/28 05:49:31;;;;;;;17.60;10.40;;;;;;;5.92;75.90;98470.41;4946938;28;20047;-82
2021/11/28 05:53:04;;;;;;;16.83;9.35;;;;;;;4.99;75.86;98303.69;4871798;29;20052;-84
2021/11/28 05:55:37;;;;;;;16.73;9.13;;;;;;;5.28;75.91;98356.69;4843766;29;20052;-84
2021/11/28 05:58:03;;;;;;;16.85;9.77;;;;;;;5.53;75.67;98408.88;4893373;28;20416;-82
2021/11/28 06:00:29;;;;;;;16.45;9.77;;;;;;;5.47;75.89;98396.06;4951279;28;20038;-85
2021/11/28 06:03:04;;;;;;;15.32;8.88;;;;;;;6.05;76.03;98488.41;4962904;28;20054;-82
2021/11/28 06:05:37;;;;;;;15.57;9.30;;;;;;;6.02;75.94;98476.38;4951601;28;20042;-83
2021/11/28 06:08:16;;;;;;;17.40;9.48;;;;;;;5.69;75.69;98411.31;4949317;28;20027;-83
2021/11/28 06:10:45;;;;;;;16.42;9.88;;;;;;;5.83;75.65;98440.41;4981962;28;20137;-86
2021/11/28 06:13:46;;;;;;;16.63;9.25;;;;;;;6.47;75.35;98520.59;4943652;28;20070;-86
2021/11/28 06:16:50;;;;;;;16.73;9.65;;;;;;;6.47;75.71;98517.19;4942203;28;20066;-85
2021/11/28 06:19:38;;;;;;;17.45;9.82;;;;;;;5.66;75.25;98399.28;4957529;28;20051;-85
2021/11/28 06:22:26;;;;;;;16.85;9.48;;;;;;;6.53;75.05;98535.16;4924318;28;20138;-84
2021/11/28 06:24:56;;;;;;;18.80;9.95;;;;;;;6.02;75.02;98443.66;4949729;28;20039;-84
2021/11/28 06:27:30;;;;;;;15.38;9.30;;;;;;;6.56;75.12;98527.38;4930210;28;20039;-85
2021/11/28 06:29:56;;;;;;;16.75;9.27;;;;;;;5.93;74.75;98423.06;4922696;28;20551;-84
2021/11/28 06:32:42;;;;;;;15.02;9.07;;;;;;;6.59;74.65;98540.28;4959904;28;20408;-82
2021/11/28 06:35:30;;;;;;;17.25;9.77;;;;;;;6.58;74.44;98542.88;4957500;28;20507;-82
2021/11/28 06:38:19;;;;;;;18.90;8.70;;;;;;;5.95;74.64;98435.97;4871144;29;20044;-84
2021/11/28 06:41:14;;;;;;;14.05;8.52;;;;;;;5.62;74.58;98395.06;4911590;28;20060;-80
2021/11/28 06:43:40;;;;;;;13.85;8.48;;;;;;;6.53;74.18;98550.69;4948974;28;20039;-83
2021/11/28 06:46:06;;;;;;;17.30;9.10;;;;;;;6.35;74.85;98522.47;4956549;28;20039;-83
2021/11/28 06:48:32;;;;;;;13.23;8.30;;;;;;;6.05;73.81;98489.25;4949631;28;20043;-81
2021/11/28 06:51:19;;;;;;;13.90;8.30;;;;;;;5.82;74.29;98455.91;4962243;28;20039;-84
2021/11/28 06:53:55;;;;;;;15.90;8.35;;;;;;;5.80;74.21;98468.00;4932553;28;20069;-82
2021/11/28 06:56:53;;;;;;;14.48;7.65;;;;;;;5.64;73.53;98432.00;4966214;28;20049;-85
2021/11/28 06:59:31;;;;;;;8.68;6.25;;;;;;;6.35;73.98;98590.53;4951734;28;20053;-82
2021/11/28 07:01:58;;;;;;;10.05;6.75;;;;;;;5.93;73.58;98510.88;4984748;28;20090;-84
2021/11/28 07:04:24;;;;;;;9.40;6.40;;;;;;;5.59;73.82;98464.75;4949852;28;20082;-84
2021/11/28 07:07:05;;;;;;;;;;;;;;;6.27;73.53;98574.25;4970230;28;20034;-85
2021/11/28 07:09:59;;;;;;;12.63;6.50;;;;;;;6.21;73.40;98593.25;4965160;28;19918;-84
2021/11/28 07:12:29;;;;;;;9.98;5.90;;;;;;;5.61;73.08;98503.44;4919696;28;20034;-82
2021/11/28 07:14:55;;;;;;;9.10;5.80;;;;;;;5.78;73.03;98517.03;4967481;28;20153;-85
2021/11/28 07:17:29;;;;;;;8.45;5.65;;;;;;;5.12;72.65;98413.59;4953364;28;20035;-83
2021/11/28 07:19:59;;;;;;;9.00;6.03;;;;;;;5.56;72.98;98506.91;4951907;28;20158;-86
2021/11/28 07:22:53;;;;;;;8.43;5.22;;;;;;;5.66;72.72;98501.69;4939475;28;20043;-84
2021/11/28 07:25:20;;;;;;;8.38;5.53;;;;;;;5.72;72.34;98533.44;4953840;28;20043;-87
2021/11/28 07:28:18;;;;;;;8.27;5.80;;;;;;;5.59;71.70;98516.38;4967422;28;20105;-84
2021/11/28 07:31:08;;;;;;;8.02;5.80;;;;;;;5.68;72.11;98524.00;4931665;28;20051;-84
2021/11/28 07:34:10;;;;;;;7.80;5.68;;;;;;;5.32;71.89;98477.03;4967804;28;20496;-83
2021/11/28 07:37:06;;;;;;;8.05;5.30;;;;;;;5.47;71.50;98495.81;4941346;28;20041;-84
2021/11/28 07:39:34;;;;;;;8.25;5.57;;;;;;;5.71;71.51;98525.72;4938747;28;20051;-84
2021/11/28 07:42:04;;;;;;;7.93;5.20;;;;;;;5.70;70.99;98548.09;4938737;28;20149;-82
2021/11/28 07:45:00;;;;;;;7.25;4.78;;;;;;;5.85;70.95;98583.25;4912405;28;20401;-86
2021/11/28 07:47:59;;;;;;;7.75;5.20;;;;;;;5.83;70.90;98586.72;4918844;28;20472;-85
2021/11/28 07:51:34;;;;;;;7.07;4.80;;;;;;;5.11;71.08;98478.94;4888292;29;20109;-84
2021/11/28 07:54:01;;;;;;;8.25;5.40;;;;;;;5.07;70.34;98481.56;4941694;28;20046;-84
2021/11/28 07:56:39;;;;;;;;;;;;;;;;;;;;;
2021/11/28 07:59:45;;;;;;;7.72;4.47;;;;;;;5.76;70.30;98595.38;4920759;29;20626;-84
2021/11/28 08:02:18;;;;;;;6.72;4.47;;;;;;;5.38;70.07;98563.84;4934302;29;20113;-83
2021/11/28 08:04:48;;;;;;;6.28;4.25;;;;;;;5.56;70.00;98568.84;4954144;28;20073;-84
2021/11/28 08:08:31;;;;;;;;;;;;;;;;;;;;;
2021/11/28 08:11:50;;;;;;;7.20;4.40;;;;;;;4.97;69.09;98475.59;4962689;28;20075;-82
2021/11/28 08:14:31;;;;;;;8.75;4.25;;;;;;;5.86;69.30;98622.81;4899204;29;20060;-85
2021/11/28 08:16:59;;;;;;;10.10;5.18;;;;;;;5.13;69.07;98512.44;4901090;29;20075;-85
2021/11/28 08:19:31;;;;;;;9.50;4.75;;;;;;;5.40;68.93;98560.41;4895714;29;20044;-84
2021/11/28 08:22:01;;;;;;;8.20;5.15;;;;;;;5.26;68.85;98524.38;4942664;29;20047;-85
2021/11/28 08:28:12;;;;;;;7.32;4.20;;;;;;;5.13;67.67;98495.25;4847499;29;20069;-85
2021/11/28 08:31:29;;;;;;;6.90;4.95;;;;;;;5.22;67.78;98507.22;4935055;29;20055;-84
2021/11/28 08:34:14;;;;;;;7.25;4.75;;;;;;;6.23;67.85;98681.06;4930430;29;20078;-84
2021/11/28 08:37:13;;;;;;;7.22;4.43;;;;;;;5.59;67.54;98591.22;4865184;29;20069;-85
2021/11/28 08:39:39;;;;;;;5.25;4.03;;;;;;;5.86;67.72;98658.97;4921371;29;20436;-85
2021/11/28 08:42:33;;;;;;;6.35;4.68;;;;;;;5.14;67.57;98521.88;4941312;29;20054;-87
2021/11/28 08:45:28;;;;;;;6.93;4.30;;;;;;;6.17;67.32;98687.16;4918074;29;20050;-84
2021/11/28 08:48:01;;;;;;;6.40;4.50;;;;;;;5.02;67.58;98509.09;4931163;29;20051;-85
2021/11/28 08:50:40;;;;;;;5.90;4.72;;;;;;;5.03;67.56;98510.81;4959457;29;20042;-87
2021/11/28 08:53:12;;;;;;;7.55;5.05;;;;;;;4.93;67.60;98479.06;4927050;29;20094;-86
2021/11/28 08:55:56;;;;;;;6.45;4.88;;;;;;;5.86;67.45;98627.97;4953239;29;20044;-86
2021/11/28 08:58:28;;;;;;;8.95;5.32;;;;;;;5.33;67.30;98540.66;4970226;28;20098;-84
2021/11/28 09:00:54;;;;;;;9.25;5.85;;;;;;;5.62;67.41;98592.91;4941466;29;20035;-85
2021/11/28 09:03:23;;;;;;;9.07;5.25;;;;;;;6.37;67.76;98714.53;4951633;29;20039;-83
2021/11/28 09:05:58;;;;;;;7.80;5.53;;;;;;;5.69;66.70;98599.75;4972492;28;20043;-82
2021/11/28 09:08:30;;;;;;;9.35;5.75;;;;;;;5.86;67.15;98648.63;4916167;29;20046;-85
2021/11/28 09:10:56;;;;;;;8.10;4.88;;;;;;;5.93;66.82;98654.63;4962812;28;20047;-84
2021/11/28 09:13:25;;;;;;;7.95;4.50;;;;;;;5.76;67.15;98621.19;4929711;29;20147;-85
2021/11/28 09:15:52;;;;;;;9.50;5.47;;;;;;;5.67;66.93;98591.16;4935754;29;20153;-86
2021/11/28 09:18:33;;;;;;;9.30;5.45;;;;;;;5.20;66.74;98513.25;4949213;28;20042;-85
2021/11/28 09:21:06;;;;;;;7.15;4.97;;;;;;;6.37;66.60;98724.88;4940862;29;20125;-85
2021/11/28 09:24:48;;;;;;;;;;;;;;;;;;;;;
2021/11/28 09:28:15;;;;;;;8.40;5.55;;;;;;;5.16;66.63;98564.00;4902844;29;20114;-85
2021/11/28 09:31:34;;;;;;;8.77;5.60;;;;;;;5.24;66.50;98594.88;4905113;29;20066;-84
2021/11/28 09:34:06;;;;;;;7.95;5.53;;;;;;;5.84;67.05;98677.06;4824596;29;20054;-86
2021/11/28 09:37:17;;;;;;;8.93;6.05;;;;;;;6.13;67.03;98719.91;4919864;29;20051;-83
2021/11/28 09:40:42;;;;;;;11.52;6.82;;;;;;;6.10;67.17;98714.78;4844201;29;20067;-84
2021/11/28 09:46:20;;;;;;;;;;;;;;;6.07;67.17;98717.38;4772594;26;20074;-85
2021/11/28 09:48:48;;;;;;;9.35;6.47;;;;;;;6.07;67.14;98740.63;4931574;29;19902;-85
2021/11/28 09:52:11;;;;;;;8.15;6.15;;;;;;;5.32;67.42;98608.59;4906232;29;20039;-86
2021/11/28 09:54:46;;;;;;;8.65;6.03;;;;;;;5.77;67.45;98672.78;4910134;29;20062;-87
2021/11/28 09:57:35;;;;;;;9.77;5.95;;;;;;;5.12;67.77;98570.03;4927062;29;20043;-85
2021/11/28 10:00:15;;;;;;;10.80;6.78;;;;;;;5.78;67.38;98697.75;4931036;29;20047;-86
2021/11/28 10:02:50;;;;;;;10.02;6.72;;;;;;;5.48;67.81;98631.72;4941676;28;20054;-80
2021/11/28 10:05:19;;;;;;;13.85;6.70;;;;;;;5.17;68.02;98580.34;4941358;29;20054;-85
2021/11/28 10:07:47;;;;;;;11.02;7.18;;;;;;;5.03;68.02;98550.31;4942764;28;20043;-85
2021/11/28 10:10:15;;;;;;;11.52;6.72;;;;;;;6.11;67.96;98731.97;4937715;28;20071;-84
2021/11/28 10:12:49;;;;;;;9.43;6.50;;;;;;;5.96;68.06;98714.00;4949556;28;20035;-81
2021/11/28 10:19:07;;;;;;;10.52;6.45;;;;;;;5.26;67.82;98639.59;4960600;29;20043;-83
2021/11/28 10:21:51;;;;;;;;;;;;;;;;;;;;;
2021/11/28 10:24:36;;;;;;;10.93;6.47;;;;;;;5.56;67.84;98715.13;4963045;29;20047;-83
2021/11/28 10:27:30;;;;;;;11.63;6.53;;;;;;;5.18;68.34;98675.75;4912662;29;20047;-82
2021/11/28 10:30:33;;;;;;;11.50;6.93;;;;;;;5.83;68.94;98793.25;4935951;29;20086;-82
2021/11/28 10:33:26;;;;;;;9.10;6.07;;;;;;;5.16;68.51;98699.84;4925013;29;20411;-83
2021/11/28 10:36:00;;;;;;;12.93;6.88;;;;;;;5.39;68.00;98752.19;4954510;29;20050;-83
2021/11/28 10:38:41;;;;;;;11.75;7.25;;;;;;;5.49;68.67;98767.63;4926116;29;20054;-82
2021/11/28 10:41:22;;;;;;;11.20;7.00;;;;;;;5.77;68.46;98812.22;4937312;29;20050;-80
2021/11/28 10:43:48;;;;;;;9.88;6.28;;;;;;;5.62;68.44;98783.91;4950947;29;20146;-79
2021/11/28 10:46:31;;;;;;;10.70;6.18;;;;;;;5.72;68.63;98813.97;4927846;29;20047;-79
2021/11/28 10:49:11;;;;;;;9.77;6.10;;;;;;;5.70;68.86;98824.28;4955852;29;20035;-81
2021/11/28 10:51:40;;;;;;;10.88;6.50;;;;;;;5.50;68.31;98777.06;4940705;29;20039;-80
2021/11/28 10:54:30;;;;;;;10.13;6.38;;;;;;;5.64;67.95;98824.31;4938333;29;20094;-80
2021/11/28 10:57:10;;;;;;;13.23;7.10;;;;;;;5.55;68.57;98832.09;4923461;29;20058;-83
2021/11/28 10:59:54;;;;;;;10.65;7.18;;;;;;;5.51;68.19;98836.44;4956540;28;20531;-80
2021/11/28 11:02:36;;;;;;;10.45;6.63;;;;;;;5.08;68.48;98765.19;4927113;29;20044;-79
2021/11/28 11:05:13;;;;;;;11.18;6.28;;;;;;;5.40;68.14;98823.56;4926103;29;20469;-81
2021/11/28 11:07:48;;;;;;;10.40;5.80;;;;;;;5.43;68.24;98844.19;4971036;28;20054;-78
2021/11/28 11:10:18;;;;;;;8.70;5.88;;;;;;;5.41;68.38;98838.16;4966824;29;20073;-79
2021/11/28 11:12:48;;;;;;;11.02;6.10;;;;;;;5.46;67.82;98835.59;4965163;29;20043;-78
2021/11/28 11:15:34;;;;;;;11.68;5.70;;;;;;;5.47;68.10;98839.00;4953467;28;20099;-81
2021/11/28 11:18:31;;;;;;;13.38;6.38;;;;;;;5.55;67.82;98852.75;4939476;29;20073;-81
2021/11/28 11:21:28;;;;;;;9.43;6.15;;;;;;;4.85;68.15;98728.31;4936753;29;20039;-82
2021/11/28 11:24:00;;;;;;;11.43;6.30;;;;;;;5.53;67.49;98842.41;4959591;28;20098;-82
2021/11/28 11:26:52;;;;;;;11.02;5.72;;;;;;;5.03;67.67;98766.06;4940423;29;20038;-83
2021/11/28 11:29:18;;;;;;;;;;;;;;;5.46;67.45;98845.91;4914998;29;20071;-83
2021/11/28 11:32:02;;;;;;;9.38;5.75;;;;;;;5.07;67.68;98794.41;4944177;29;19957;-81
2021/11/28 11:35:08;;;;;;;11.63;6.45;;;;;;;5.07;67.46;98775.53;4958763;29;20461;-83
2021/11/28 11:38:04;;;;;;;9.93;6.05;;;;;;;5.48;67.67;98849.34;4940524;29;20047;-84
2021/11/28 11:40:31;;;;;;;11.23;6.82;;;;;;;5.22;67.89;98829.63;4926283;29;20063;-83
2021/11/28 11:43:23;;;;;;;13.32;6.82;;;;;;;5.16;66.99;98818.47;4947510;28;20047;-84
2021/11/28 11:45:50;;;;;;;12.90;6.90;;;;;;;4.68;67.32;98754.97;4927136;29;20063;-83
2021/11/28 11:48:19;;;;;;;11.55;6.60;;;;;;;4.78;67.21;98769.56;4914084;29;20705;-84
2021/11/28 11:51:13;;;;;;;13.63;7.25;;;;;;;4.26;67.62;98694.94;4942077;29;20437;-86
2021/11/28 11:54:09;;;;;;;10.93;6.53;;;;;;;4.81;67.38;98790.16;4960897;29;20054;-85
2021/11/28 11:56:48;;;;;;;12.77;6.95;;;;;;;4.45;67.72;98730.09;4958305;29;20142;-84
2021/11/28 11:59:39;;;;;;;12.20;6.90;;;;;;;5.11;67.63;98844.25;4928080;29;20102;-80
2021/11/28 12:02:30;;;;;;;10.48;6.40;;;;;;;4.98;67.32;98830.53;4938673;29;20050;-82
2021/11/28 12:05:18;;;;;;;12.55;6.57;;;;;;;4.76;67.41;98797.03;4961276;28;20050;-81
2021/11/28 12:08:21;;;;;;;13.32;6.97;;;;;;;4.97;67.36;98831.38;4951213;28;20043;-85
2021/11/28 12:11:11;;;;;;;15.45;7.53;;;;;;;4.77;67.73;98793.63;4948470;28;20039;-82
2021/11/28 12:13:39;;;;;;;13.35;7.63;;;;;;;5.43;67.42;98906.09;4934808;28;20408;-83
2021/11/28 12:16:06;;;;;;;11.70;6.90;;;;;;;5.42;67.39;98901.81;4934489;28;20047;-81
2021/11/28 12:18:41;;;;;;;13.10;8.07;;;;;;;5.43;67.55;98903.53;4953733;28;20050;-84
2021/11/28 12:21:27;;;;;;;13.30;6.93;;;;;;;4.71;67.12;98793.63;4951192;28;20039;-83
2021/11/28 12:24:33;;;;;;;;;;;;;;;;;;;;;
2021/11/28 12:27:06;;;;;;;11.93;6.53;;;;;;;5.20;67.07;98894.97;4952287;28;20138;-85
2021/11/28 12:30:20;;;;;;;10.82;6.60;;;;;;;5.32;67.15;98917.31;4952703;28;20037;-85
2021/11/28 12:35:59;;;;;;;11.70;6.82;;;;;;;4.20;66.87;98729.25;4945380;28;20071;-85
2021/11/28 12:39:13;;;;;;;12.63;6.80;;;;;;;5.28;67.35;98908.72;4949349;28;20043;-85
2021/11/28 12:42:03;;;;;;;11.05;6.72;;;;;;;5.12;67.28;98892.41;4931867;28;20040;-87
2021/11/28 12:44:35;;;;;;;10.82;6.72;;;;;;;4.79;67.10;98843.44;4947744;28;20152;-82
2021/11/28 12:47:39;;;;;;;12.50;6.72;;;;;;;5.22;67.03;98913.88;4948678;28;20042;-82